createdAt,value
2018-03-20T00:00:16.548Z,5.10
2018-03-20T00:00:48.182Z,5.07
2018-03-20T00:01:19.811Z,4.75
2018-03-20T00:01:52.341Z,4.28
2018-03-20T00:02:23.963Z,4.50
2018-03-20T00:02:55.620Z,4.32
2018-03-20T00:03:27.259Z,4.45
2018-03-20T00:03:58.899Z,4.55
2018-03-20T00:04:30.603Z,4.40
2018-03-20T00:05:02.227Z,4.43
2018-03-20T00:05:33.865Z,4.53
2018-03-20T00:06:05.489Z,4.78
2018-03-20T00:06:37.124Z,4.80
2018-03-20T00:07:08.743Z,4.75
2018-03-20T00:07:40.387Z,4.22
2018-03-20T00:08:12.001Z,5.18
2018-03-20T00:08:43.611Z,4.95
2018-03-20T00:09:15.213Z,4.87
2018-03-20T00:09:46.835Z,4.53
2018-03-20T00:10:18.479Z,4.00
2018-03-20T00:10:50.117Z,4.87
2018-03-20T00:11:21.781Z,4.87
2018-03-20T00:11:53.441Z,5.07
2018-03-20T00:12:25.080Z,4.43
2018-03-20T00:12:56.705Z,3.92
2018-03-20T00:13:28.339Z,4.60
2018-03-20T00:13:59.997Z,4.93
2018-03-20T00:14:31.613Z,4.60
2018-03-20T00:15:03.274Z,4.35
2018-03-20T00:15:34.921Z,3.78
2018-03-20T00:16:06.554Z,3.53
2018-03-20T00:16:38.205Z,4.75
2018-03-20T00:17:09.840Z,4.55
2018-03-20T00:17:41.481Z,4.68
2018-03-20T00:18:13.105Z,4.85
2018-03-20T00:18:44.751Z,4.32
2018-03-20T00:19:16.400Z,4.35
2018-03-20T00:19:48.047Z,5.18
2018-03-20T00:20:19.683Z,4.45
2018-03-20T00:20:51.327Z,4.70
2018-03-20T00:21:22.998Z,5.18
2018-03-20T00:21:54.636Z,4.87
2018-03-20T00:22:26.279Z,4.50
2018-03-20T00:22:57.930Z,4.75
2018-03-20T00:23:29.573Z,4.35
2018-03-20T00:24:01.197Z,4.03
2018-03-20T00:24:32.831Z,4.75
2018-03-20T00:25:04.479Z,4.62
2018-03-20T00:25:36.104Z,4.25
2018-03-20T00:26:07.752Z,4.80
2018-03-20T00:26:39.385Z,4.55
2018-03-20T00:27:11.005Z,4.00
2018-03-20T00:27:42.646Z,4.50
2018-03-20T00:28:14.283Z,4.57
2018-03-20T00:28:45.917Z,4.85
2018-03-20T00:29:17.534Z,5.18
2018-03-20T00:29:49.173Z,4.82
2018-03-20T00:30:20.787Z,3.85
2018-03-20T00:30:52.430Z,4.07
2018-03-20T00:31:24.073Z,4.75
2018-03-20T00:31:55.711Z,4.32
2018-03-20T00:32:27.350Z,4.55
2018-03-20T00:32:58.993Z,4.62
2018-03-20T00:33:30.627Z,4.32
2018-03-20T00:34:02.253Z,4.45
2018-03-20T00:34:33.881Z,4.40
2018-03-20T00:35:05.513Z,4.72
2018-03-20T00:35:37.129Z,5.03
2018-03-20T00:36:08.770Z,4.95
2018-03-20T00:36:40.442Z,4.40
2018-03-20T00:37:12.057Z,4.78
2018-03-20T00:37:43.719Z,4.70
2018-03-20T00:38:15.341Z,4.30
2018-03-20T00:38:46.975Z,4.07
2018-03-20T00:39:18.611Z,4.55
2018-03-20T00:39:50.231Z,4.47
2018-03-20T00:40:21.873Z,5.10
2018-03-20T00:40:53.481Z,3.85
2018-03-20T00:41:25.103Z,4.65
2018-03-20T00:41:56.749Z,3.65
2018-03-20T00:42:28.379Z,4.53
2018-03-20T00:43:00.002Z,3.90
2018-03-20T00:43:31.607Z,4.50
2018-03-20T00:44:03.227Z,4.65
2018-03-20T00:44:34.837Z,5.30
2018-03-20T00:45:06.475Z,5.07
2018-03-20T00:45:38.113Z,5.03
2018-03-20T00:46:09.745Z,4.80
2018-03-20T00:46:41.356Z,5.15
2018-03-20T00:47:12.979Z,5.05
2018-03-20T00:47:44.608Z,4.15
2018-03-20T00:48:16.245Z,4.90
2018-03-20T00:48:47.890Z,4.97
2018-03-20T00:49:19.523Z,4.37
2018-03-20T00:49:51.160Z,3.53
2018-03-20T00:50:22.803Z,4.47
2018-03-20T00:50:54.427Z,4.57
2018-03-20T00:51:26.067Z,4.57
2018-03-20T00:51:57.697Z,4.25
2018-03-20T00:52:29.359Z,4.05
2018-03-20T00:53:00.975Z,5.25
2018-03-20T00:53:32.603Z,4.30
2018-03-20T00:54:04.247Z,4.72
2018-03-20T00:54:35.913Z,4.82
2018-03-20T00:55:07.539Z,5.03
2018-03-20T00:55:39.157Z,4.53
2018-03-20T00:56:10.817Z,4.53
2018-03-20T00:58:09.975Z,4.18
2018-03-20T00:58:41.597Z,4.15
2018-03-20T00:59:13.217Z,4.03
2018-03-20T00:59:44.841Z,4.93
2018-03-20T01:00:16.497Z,4.82
2018-03-20T01:00:48.135Z,4.45
2018-03-20T01:01:19.761Z,4.70
2018-03-20T01:01:51.395Z,4.45
2018-03-20T01:02:23.047Z,4.20
2018-03-20T01:02:54.699Z,4.80
2018-03-20T01:03:26.363Z,4.65
2018-03-20T01:03:57.993Z,4.20
2018-03-20T01:04:29.637Z,4.20
2018-03-20T01:05:01.281Z,4.07
2018-03-20T01:05:32.918Z,3.87
2018-03-20T01:06:04.562Z,4.07
2018-03-20T01:06:36.201Z,4.32
2018-03-20T01:07:07.845Z,5.20
2018-03-20T01:07:39.547Z,4.90
2018-03-20T01:08:11.160Z,4.28
2018-03-20T01:08:42.781Z,5.68
2018-03-20T01:09:14.391Z,5.12
2018-03-20T01:09:46.033Z,4.20
2018-03-20T01:10:17.651Z,4.25
2018-03-20T01:10:49.289Z,4.78
2018-03-20T01:11:20.918Z,4.45
2018-03-20T01:11:52.563Z,5.40
2018-03-20T01:12:24.171Z,5.25
2018-03-20T01:12:55.797Z,4.80
2018-03-20T01:13:27.423Z,5.15
2018-03-20T01:13:59.085Z,5.10
2018-03-20T01:14:30.697Z,5.18
2018-03-20T01:15:02.350Z,4.90
2018-03-20T01:15:34.009Z,4.35
2018-03-20T01:16:05.627Z,5.25
2018-03-20T01:16:37.272Z,4.75
2018-03-20T01:17:08.909Z,4.55
2018-03-20T01:17:40.547Z,7.15
2018-03-20T01:18:12.165Z,5.50
2018-03-20T01:18:43.809Z,4.40
2018-03-20T01:19:15.433Z,4.53
2018-03-20T01:19:47.103Z,4.97
2018-03-20T01:20:18.745Z,5.10
2018-03-20T01:20:50.397Z,5.05
2018-03-20T01:21:22.017Z,5.65
2018-03-20T01:21:53.657Z,4.28
2018-03-20T01:22:25.288Z,5.25
2018-03-20T01:22:56.909Z,4.45
2018-03-20T01:23:28.541Z,4.25
2018-03-20T01:24:00.187Z,4.47
2018-03-20T01:24:31.813Z,4.60
2018-03-20T01:25:03.473Z,4.07
2018-03-20T01:25:35.109Z,4.75
2018-03-20T01:26:06.749Z,4.32
2018-03-20T01:26:38.388Z,4.72
2018-03-20T01:27:10.011Z,4.87
2018-03-20T01:27:41.635Z,4.22
2018-03-20T01:28:13.245Z,4.65
2018-03-20T01:28:44.881Z,5.50
2018-03-20T01:29:16.602Z,5.12
2018-03-20T01:29:48.249Z,4.97
2018-03-20T01:30:19.892Z,4.47
2018-03-20T01:30:51.521Z,4.30
2018-03-20T01:31:23.155Z,4.18
2018-03-20T01:31:54.799Z,4.50
2018-03-20T01:32:26.439Z,5.18
2018-03-20T01:32:58.058Z,4.62
2018-03-20T01:33:29.673Z,4.70
2018-03-20T01:34:01.301Z,4.60
2018-03-20T01:34:32.947Z,5.00
2018-03-20T01:35:04.589Z,5.35
2018-03-20T01:35:36.229Z,3.83
2018-03-20T01:36:07.846Z,4.53
2018-03-20T01:36:39.461Z,4.12
2018-03-20T01:37:11.081Z,5.15
2018-03-20T01:37:42.693Z,4.28
2018-03-20T01:38:14.339Z,4.72
2018-03-20T01:38:45.974Z,4.80
2018-03-20T01:39:17.587Z,4.55
2018-03-20T01:39:49.237Z,5.03
2018-03-20T01:40:20.891Z,4.15
2018-03-20T01:40:52.516Z,4.35
2018-03-20T01:41:24.151Z,3.97
2018-03-20T01:41:55.765Z,5.20
2018-03-20T01:42:27.388Z,5.65
2018-03-20T01:42:59.041Z,4.50
2018-03-20T01:43:30.664Z,5.82
2018-03-20T01:44:02.336Z,4.03
2018-03-20T01:44:33.969Z,4.55
2018-03-20T01:45:05.600Z,4.72
2018-03-20T01:45:37.227Z,4.30
2018-03-20T01:46:08.837Z,4.43
2018-03-20T01:46:40.470Z,4.75
2018-03-20T01:47:12.107Z,4.53
2018-03-20T01:47:43.723Z,4.37
2018-03-20T01:48:15.355Z,4.07
2018-03-20T01:48:46.987Z,5.03
2018-03-20T01:49:18.609Z,4.30
2018-03-20T01:49:50.239Z,4.15
2018-03-20T01:50:21.967Z,4.28
2018-03-20T01:50:53.628Z,4.70
2018-03-20T01:51:25.248Z,5.55
2018-03-20T01:51:56.869Z,4.47
2018-03-20T01:52:28.485Z,3.55
2018-03-20T01:53:17.513Z,4.45
2018-03-20T01:53:49.127Z,4.78
2018-03-20T01:54:20.769Z,4.37
2018-03-20T01:54:52.408Z,4.28
2018-03-20T01:55:24.067Z,4.12
2018-03-20T01:55:55.709Z,5.32
2018-03-20T01:56:27.339Z,4.35
2018-03-20T01:56:58.959Z,4.93
2018-03-20T01:57:30.597Z,5.15
2018-03-20T01:58:02.229Z,5.57
2018-03-20T01:58:33.873Z,5.44
2018-03-20T01:59:05.509Z,4.18
2018-03-20T01:59:37.133Z,6.07
2018-03-20T02:00:08.741Z,4.28
2018-03-20T02:00:40.411Z,4.85
2018-03-20T02:01:12.073Z,3.92
2018-03-20T02:01:43.746Z,3.75
2018-03-20T02:02:15.417Z,4.20
2018-03-20T02:02:47.059Z,5.80
2018-03-20T02:03:18.731Z,6.72
2018-03-20T02:03:50.361Z,4.15
2018-03-20T02:04:21.976Z,4.22
2018-03-20T02:04:53.621Z,4.75
2018-03-20T02:05:25.275Z,5.50
2018-03-20T02:05:56.905Z,5.32
2018-03-20T02:06:28.553Z,4.87
2018-03-20T02:07:00.189Z,5.80
2018-03-20T02:07:31.823Z,5.45
2018-03-20T02:08:03.469Z,4.25
2018-03-20T02:08:35.105Z,5.97
2018-03-20T02:09:06.745Z,4.60
2018-03-20T02:09:38.365Z,5.30
2018-03-20T02:10:10.023Z,5.75
2018-03-20T02:10:41.637Z,4.70
2018-03-20T02:11:13.289Z,5.95
2018-03-20T02:11:44.931Z,5.07
2018-03-20T02:12:16.536Z,4.75
2018-03-20T02:12:48.177Z,5.93
2018-03-20T02:13:19.793Z,5.15
2018-03-20T02:13:51.429Z,5.78
2018-03-20T02:14:23.057Z,5.18
2018-03-20T02:14:54.675Z,4.65
2018-03-20T02:15:26.319Z,5.43
2018-03-20T02:15:57.947Z,5.53
2018-03-20T02:16:29.615Z,5.37
2018-03-20T02:17:01.255Z,6.47
2018-03-20T02:17:32.881Z,4.90
2018-03-20T02:18:04.549Z,5.62
2018-03-20T02:18:36.194Z,4.97
2018-03-20T02:19:07.814Z,6.72
2018-03-20T02:19:39.465Z,4.68
2018-03-20T02:20:11.131Z,4.72
2018-03-20T02:20:42.795Z,6.20
2018-03-20T02:21:14.453Z,4.70
2018-03-20T02:21:46.116Z,6.22
2018-03-20T02:22:17.761Z,5.80
2018-03-20T02:22:49.381Z,5.22
2018-03-20T02:23:21.030Z,4.68
2018-03-20T02:23:52.665Z,5.65
2018-03-20T02:24:24.295Z,5.43
2018-03-20T02:24:55.925Z,6.05
2018-03-20T02:25:27.569Z,5.32
2018-03-20T02:25:59.222Z,6.78
2018-03-20T02:26:30.835Z,5.28
2018-03-20T02:27:02.485Z,6.05
2018-03-20T02:27:34.153Z,5.45
2018-03-20T02:28:05.809Z,5.60
2018-03-20T02:28:37.421Z,5.22
2018-03-20T02:29:09.133Z,5.05
2018-03-20T02:29:40.765Z,6.07
2018-03-20T02:30:12.395Z,5.62
2018-03-20T02:30:44.028Z,4.72
2018-03-20T02:31:15.631Z,5.32
2018-03-20T02:31:47.258Z,5.55
2018-03-20T02:32:18.937Z,5.80
2018-03-20T02:32:50.585Z,5.12
2018-03-20T02:33:22.221Z,4.97
2018-03-20T02:33:53.828Z,4.90
2018-03-20T02:34:25.504Z,6.97
2018-03-20T02:34:57.097Z,6.62
2018-03-20T02:35:28.733Z,5.68
2018-03-20T02:36:00.353Z,5.37
2018-03-20T02:36:31.985Z,5.12
2018-03-20T02:37:03.613Z,6.65
2018-03-20T02:37:35.255Z,6.30
2018-03-20T02:38:06.874Z,5.10
2018-03-20T02:38:38.483Z,6.07
2018-03-20T02:39:10.134Z,5.35
2018-03-20T02:39:41.770Z,6.90
2018-03-20T02:40:13.409Z,5.35
2018-03-20T02:40:45.055Z,5.05
2018-03-20T02:41:16.687Z,5.37
2018-03-20T02:41:48.315Z,5.95
2018-03-20T02:42:19.953Z,5.15
2018-03-20T02:42:51.610Z,5.87
2018-03-20T02:43:23.237Z,5.82
2018-03-20T02:43:54.889Z,4.78
2018-03-20T02:44:26.523Z,6.32
2018-03-20T02:44:58.166Z,5.25
2018-03-20T02:45:29.789Z,4.25
2018-03-20T02:46:01.447Z,4.72
2018-03-20T02:46:33.117Z,4.70
2018-03-20T02:47:04.752Z,6.80
2018-03-20T02:47:36.381Z,4.95
2018-03-20T02:48:08.030Z,5.40
2018-03-20T02:48:39.647Z,5.15
2018-03-20T02:49:11.277Z,5.05
2018-03-20T02:49:42.887Z,4.97
2018-03-20T02:50:14.520Z,5.22
2018-03-20T02:50:46.152Z,4.93
2018-03-20T02:51:17.805Z,5.25
2018-03-20T02:51:49.456Z,4.30
2018-03-20T02:52:22.116Z,5.62
2018-03-20T02:52:53.758Z,4.80
2018-03-20T02:53:25.427Z,4.43
2018-03-20T02:53:57.082Z,4.32
2018-03-20T02:54:28.726Z,4.90
2018-03-20T02:55:00.367Z,5.12
2018-03-20T02:55:32.010Z,6.03
2018-03-20T02:56:03.636Z,4.65
2018-03-20T02:56:35.266Z,6.05
2018-03-20T02:57:06.923Z,4.82
2018-03-20T02:57:38.547Z,4.70
2018-03-20T02:58:10.202Z,4.87
2018-03-20T02:58:41.863Z,5.60
2018-03-20T02:59:13.512Z,5.50
2018-03-20T02:59:45.158Z,5.70
2018-03-20T03:00:16.834Z,4.85
2018-03-20T03:00:48.513Z,5.68
2018-03-20T03:01:20.183Z,5.22
2018-03-20T03:01:51.833Z,4.87
2018-03-20T03:02:23.493Z,6.60
2018-03-20T03:02:55.134Z,6.15
2018-03-20T03:03:26.796Z,4.68
2018-03-20T03:03:58.438Z,5.22
2018-03-20T03:04:30.055Z,4.43
2018-03-20T03:05:01.702Z,5.53
2018-03-20T03:05:33.333Z,5.72
2018-03-20T03:06:04.969Z,4.78
2018-03-20T03:06:36.611Z,5.78
2018-03-20T03:07:08.259Z,5.68
2018-03-20T03:07:39.900Z,5.15
2018-03-20T03:08:11.553Z,4.43
2018-03-20T03:08:43.162Z,5.80
2018-03-20T03:09:14.799Z,4.53
2018-03-20T03:09:46.481Z,3.97
2018-03-20T03:10:18.111Z,6.05
2018-03-20T03:10:49.766Z,4.80
2018-03-20T03:11:21.389Z,5.37
2018-03-20T03:11:53.001Z,5.43
2018-03-20T03:12:24.631Z,5.10
2018-03-20T03:12:56.263Z,4.32
2018-03-20T03:13:28.049Z,5.40
2018-03-20T03:13:59.669Z,4.54
2018-03-20T03:14:31.333Z,5.75
2018-03-20T03:15:03.029Z,4.10
2018-03-20T03:15:34.647Z,5.37
2018-03-20T03:16:06.337Z,3.55
2018-03-20T03:16:37.984Z,4.60
2018-03-20T03:17:09.609Z,4.22
2018-03-20T03:17:41.237Z,3.95
2018-03-20T03:18:12.883Z,4.12
2018-03-20T03:18:44.518Z,3.37
2018-03-20T03:19:16.151Z,3.12
2018-03-20T03:19:47.800Z,3.92
2018-03-20T03:20:19.429Z,3.58
2018-03-20T03:20:51.070Z,3.12
2018-03-20T03:21:22.713Z,3.65
2018-03-20T03:21:54.327Z,3.20
2018-03-20T03:22:25.939Z,3.28
2018-03-20T03:22:57.545Z,3.30
2018-03-20T03:23:29.189Z,2.92
2018-03-20T03:24:00.824Z,3.92
2018-03-20T03:24:32.475Z,3.47
2018-03-20T03:25:04.165Z,3.17
2018-03-20T03:25:35.787Z,2.65
2018-03-20T03:26:07.428Z,3.55
2018-03-20T03:26:39.073Z,4.10
2018-03-20T03:27:10.698Z,3.22
2018-03-20T03:27:42.319Z,3.62
2018-03-20T03:28:13.949Z,3.90
2018-03-20T03:28:45.611Z,4.20
2018-03-20T03:29:17.247Z,3.10
2018-03-20T03:29:48.851Z,3.55
2018-03-20T03:30:20.484Z,3.25
2018-03-20T03:30:52.107Z,3.00
2018-03-20T03:31:23.761Z,3.40
2018-03-20T03:31:55.387Z,3.55
2018-03-20T03:32:27.001Z,3.25
2018-03-20T03:32:58.613Z,3.47
2018-03-20T03:33:30.255Z,4.00
2018-03-20T03:34:01.911Z,3.70
2018-03-20T03:34:33.553Z,3.08
2018-03-20T03:35:05.197Z,4.25
2018-03-20T03:35:36.831Z,3.95
2018-03-20T03:36:08.455Z,4.72
2018-03-20T03:36:40.128Z,3.47
2018-03-20T03:37:11.749Z,4.22
2018-03-20T03:37:43.380Z,3.37
2018-03-20T03:38:15.031Z,3.60
2018-03-20T03:38:46.660Z,4.10
2018-03-20T03:39:18.292Z,3.53
2018-03-20T03:39:49.923Z,4.25
2018-03-20T03:40:21.548Z,3.25
2018-03-20T03:40:53.184Z,3.22
2018-03-20T03:41:24.812Z,3.67
2018-03-20T03:41:56.463Z,4.18
2018-03-20T03:42:28.076Z,4.43
2018-03-20T03:42:59.707Z,3.70
2018-03-20T03:43:31.334Z,3.75
2018-03-20T03:44:02.973Z,4.10
2018-03-20T03:44:34.596Z,3.97
2018-03-20T03:45:06.287Z,4.53
2018-03-20T03:45:37.883Z,3.53
2018-03-20T03:46:09.533Z,4.05
2018-03-20T03:46:41.165Z,3.58
2018-03-20T03:47:12.787Z,4.93
2018-03-20T03:47:44.415Z,3.10
2018-03-20T03:48:16.052Z,3.78
2018-03-20T03:48:47.673Z,2.67
2018-03-20T03:49:19.323Z,3.40
2018-03-20T03:49:50.935Z,4.18
2018-03-20T03:50:22.570Z,2.97
2018-03-20T03:50:54.187Z,3.55
2018-03-20T03:51:25.816Z,3.28
2018-03-20T03:51:57.431Z,4.30
2018-03-20T03:52:29.077Z,3.05
2018-03-20T03:53:00.714Z,3.50
2018-03-20T03:53:32.352Z,4.18
2018-03-20T03:54:04.004Z,3.53
2018-03-20T03:54:35.647Z,3.55
2018-03-20T03:55:07.307Z,2.85
2018-03-20T03:55:38.925Z,3.28
2018-03-20T03:56:10.555Z,3.47
2018-03-20T03:56:42.169Z,2.92
2018-03-20T03:57:13.835Z,4.18
2018-03-20T03:57:45.445Z,3.35
2018-03-20T03:58:17.072Z,3.42
2018-03-20T03:58:48.725Z,3.25
2018-03-20T03:59:20.365Z,3.50
2018-03-20T03:59:51.999Z,3.95
2018-03-20T04:00:23.641Z,3.55
2018-03-20T04:00:55.285Z,3.30
2018-03-20T04:01:26.969Z,3.95
2018-03-20T04:01:58.594Z,3.50
2018-03-20T04:02:30.217Z,3.75
2018-03-20T04:03:01.855Z,4.62
2018-03-20T04:03:33.512Z,3.58
2018-03-20T04:04:05.150Z,3.60
2018-03-20T04:04:36.777Z,3.60
2018-03-20T04:05:08.427Z,4.32
2018-03-20T04:05:40.053Z,3.40
2018-03-20T04:06:11.705Z,4.45
2018-03-20T04:06:43.341Z,3.65
2018-03-20T04:07:14.953Z,4.25
2018-03-20T04:07:46.577Z,3.95
2018-03-20T04:08:18.209Z,3.95
2018-03-20T04:08:49.826Z,4.95
2018-03-20T04:09:21.475Z,3.22
2018-03-20T04:09:53.137Z,4.12
2018-03-20T04:10:24.765Z,3.72
2018-03-20T04:10:56.411Z,3.67
2018-03-20T04:11:28.068Z,3.42
2018-03-20T04:11:59.723Z,3.90
2018-03-20T04:12:31.373Z,3.17
2018-03-20T04:13:03.040Z,3.40
2018-03-20T04:13:34.667Z,3.92
2018-03-20T04:14:06.297Z,3.55
2018-03-20T04:14:37.925Z,3.58
2018-03-20T04:15:09.559Z,3.83
2018-03-20T04:15:41.213Z,4.20
2018-03-20T04:16:12.847Z,3.78
2018-03-20T04:16:44.495Z,4.40
2018-03-20T04:17:16.125Z,5.55
2018-03-20T04:17:47.765Z,3.37
2018-03-20T04:18:19.400Z,4.10
2018-03-20T04:18:51.041Z,3.42
2018-03-20T04:19:22.705Z,3.70
2018-03-20T04:19:54.310Z,4.10
2018-03-20T04:20:25.965Z,4.53
2018-03-20T04:20:57.571Z,4.03
2018-03-20T04:21:29.203Z,4.45
2018-03-20T04:22:00.837Z,4.32
2018-03-20T04:22:32.477Z,3.53
2018-03-20T04:23:04.167Z,4.75
2018-03-20T04:23:35.760Z,4.82
2018-03-20T04:24:07.384Z,3.90
2018-03-20T04:24:39.051Z,3.58
2018-03-20T04:25:10.664Z,4.53
2018-03-20T04:25:42.305Z,3.70
2018-03-20T04:26:13.926Z,3.97
2018-03-20T04:26:45.564Z,3.87
2018-03-20T04:27:17.171Z,4.10
2018-03-20T04:27:48.793Z,3.95
2018-03-20T04:28:20.455Z,4.12
2018-03-20T04:28:52.088Z,3.72
2018-03-20T04:29:23.725Z,3.97
2018-03-20T04:29:55.327Z,3.67
2018-03-20T04:30:26.945Z,4.07
2018-03-20T04:30:58.595Z,4.03
2018-03-20T04:31:30.229Z,4.75
2018-03-20T04:32:01.849Z,4.35
2018-03-20T04:32:33.473Z,4.20
2018-03-20T04:33:05.097Z,3.78
2018-03-20T04:33:36.725Z,3.05
2018-03-20T04:34:08.358Z,3.55
2018-03-20T04:34:39.972Z,4.25
2018-03-20T04:35:11.607Z,3.85
2018-03-20T04:35:43.233Z,3.65
2018-03-20T04:36:14.854Z,3.95
2018-03-20T04:36:46.467Z,3.70
2018-03-20T04:37:18.087Z,3.25
2018-03-20T04:37:49.711Z,3.62
2018-03-20T04:38:21.335Z,3.60
2018-03-20T04:38:52.945Z,3.30
2018-03-20T04:39:24.580Z,3.70
2018-03-20T04:39:56.229Z,3.87
2018-03-20T04:40:27.861Z,3.33
2018-03-20T04:40:59.482Z,4.30
2018-03-20T04:41:31.117Z,4.00
2018-03-20T04:42:02.753Z,3.28
2018-03-20T04:42:34.386Z,3.62
2018-03-20T04:43:06.011Z,4.62
2018-03-20T04:43:37.652Z,3.95
2018-03-20T04:44:09.283Z,4.43
2018-03-20T04:44:40.909Z,3.65
2018-03-20T04:45:12.651Z,4.18
2018-03-20T04:45:44.287Z,3.30
2018-03-20T04:46:15.915Z,4.65
2018-03-20T04:46:47.537Z,4.07
2018-03-20T04:47:19.192Z,3.47
2018-03-20T04:47:50.812Z,3.53
2018-03-20T04:48:22.442Z,3.55
2018-03-20T04:48:54.065Z,3.65
2018-03-20T04:49:25.705Z,3.58
2018-03-20T04:49:57.349Z,3.50
2018-03-20T04:50:28.963Z,5.12
2018-03-20T04:51:00.592Z,3.83
2018-03-20T04:51:32.201Z,3.40
2018-03-20T04:52:03.841Z,3.90
2018-03-20T04:52:35.479Z,3.30
2018-03-20T04:53:07.112Z,3.33
2018-03-20T04:53:38.744Z,4.25
2018-03-20T04:54:10.382Z,3.78
2018-03-20T04:54:42.027Z,3.80
2018-03-20T04:55:13.627Z,4.40
2018-03-20T04:55:45.244Z,3.40
2018-03-20T04:56:16.856Z,4.28
2018-03-20T04:56:48.494Z,3.70
2018-03-20T04:57:20.116Z,4.87
2018-03-20T04:57:51.765Z,3.17
2018-03-20T04:58:23.388Z,4.47
2018-03-20T04:58:55.019Z,3.62
2018-03-20T04:59:26.636Z,3.87
2018-03-20T04:59:58.261Z,4.10
2018-03-20T05:00:29.849Z,4.43
2018-03-20T05:01:01.469Z,3.47
2018-03-20T05:01:33.114Z,3.80
2018-03-20T05:02:04.721Z,3.40
2018-03-20T05:02:36.337Z,4.80
2018-03-20T05:03:07.962Z,4.03
2018-03-20T05:03:39.606Z,4.00
2018-03-20T05:04:11.241Z,3.67
2018-03-20T05:04:42.895Z,4.37
2018-03-20T05:05:14.573Z,4.30
2018-03-20T05:05:46.187Z,3.40
2018-03-20T05:06:17.810Z,5.00
2018-03-20T05:06:49.440Z,5.32
2018-03-20T05:07:21.073Z,4.45
2018-03-20T05:07:52.669Z,3.85
2018-03-20T05:08:24.301Z,4.43
2018-03-20T05:08:55.915Z,4.35
2018-03-20T05:09:27.526Z,3.35
2018-03-20T05:09:59.143Z,4.72
2018-03-20T05:10:30.833Z,5.35
2018-03-20T05:11:02.474Z,4.40
2018-03-20T05:11:34.107Z,3.62
2018-03-20T05:12:05.756Z,3.85
2018-03-20T05:12:37.367Z,4.12
2018-03-20T05:13:08.980Z,4.12
2018-03-20T05:13:40.616Z,3.53
2018-03-20T05:14:12.391Z,3.80
2018-03-20T05:14:44.033Z,4.37
2018-03-20T05:15:15.662Z,4.45
2018-03-20T05:15:47.317Z,4.05
2018-03-20T05:16:18.977Z,4.28
2018-03-20T05:16:50.635Z,4.57
2018-03-20T05:17:22.301Z,4.25
2018-03-20T05:17:56.945Z,4.03
2018-03-20T05:18:28.591Z,4.53
2018-03-20T05:20:30.317Z,4.00
2018-03-20T05:21:19.821Z,4.60
2018-03-20T05:21:57.453Z,3.95
2018-03-20T05:22:44.024Z,4.15
2018-03-20T05:23:21.888Z,4.62
2018-03-20T05:24:41.947Z,4.35
2018-03-20T05:25:13.585Z,4.65
2018-03-20T05:25:45.229Z,4.62
2018-03-20T05:26:16.891Z,4.57
2018-03-20T05:26:48.546Z,4.25
2018-03-20T05:27:20.203Z,4.25
2018-03-20T05:27:51.844Z,4.68
2018-03-20T05:28:23.515Z,4.70
2018-03-20T05:28:55.175Z,5.57
2018-03-20T05:29:26.843Z,5.00
2018-03-20T05:29:58.521Z,3.95
2018-03-20T05:30:30.167Z,3.92
2018-03-20T05:31:01.849Z,4.53
2018-03-20T05:31:33.507Z,4.03
2018-03-20T05:32:05.171Z,4.40
2018-03-20T05:32:36.813Z,4.07
2018-03-20T05:33:08.479Z,4.78
2018-03-20T05:33:40.171Z,4.22
2018-03-20T05:34:11.823Z,4.05
2018-03-20T05:34:43.475Z,4.30
2018-03-20T05:35:15.125Z,3.67
2018-03-20T05:35:46.770Z,4.72
2018-03-20T05:36:18.415Z,4.53
2018-03-20T05:36:50.067Z,4.07
2018-03-20T05:37:21.733Z,4.47
2018-03-20T05:37:53.395Z,4.62
2018-03-20T05:38:25.048Z,4.55
2018-03-20T05:38:56.748Z,4.70
2018-03-20T05:39:28.410Z,4.68
2018-03-20T05:40:00.041Z,3.87
2018-03-20T05:40:31.685Z,4.87
2018-03-20T05:41:03.347Z,4.53
2018-03-20T05:41:35.002Z,4.78
2018-03-20T05:42:06.646Z,5.07
2018-03-20T05:42:38.295Z,4.18
2018-03-20T05:43:09.975Z,4.20
2018-03-20T05:43:41.617Z,4.70
2018-03-20T05:44:13.253Z,3.47
2018-03-20T05:44:44.917Z,5.53
2018-03-20T05:45:16.564Z,4.72
2018-03-20T05:45:48.209Z,4.55
2018-03-20T05:46:20.861Z,4.72
2018-03-20T05:47:07.413Z,5.65
2018-03-20T05:47:45.281Z,4.40
2018-03-20T05:49:27.009Z,4.32
2018-03-20T05:51:35.406Z,4.37
2018-03-20T05:52:07.070Z,5.07
2018-03-20T05:52:38.718Z,5.00
2018-03-20T05:53:10.377Z,5.00
2018-03-20T05:53:42.023Z,4.70
2018-03-20T05:54:13.669Z,5.82
2018-03-20T05:54:45.317Z,4.45
2018-03-20T05:55:16.960Z,5.18
2018-03-20T05:55:48.590Z,4.95
2018-03-20T05:56:20.207Z,4.93
2018-03-20T05:56:51.833Z,3.90
2018-03-20T05:57:23.469Z,4.10
2018-03-20T05:57:55.104Z,6.15
2018-03-20T05:58:26.747Z,4.18
2018-03-20T05:58:58.387Z,5.43
2018-03-20T05:59:30.003Z,5.03
2018-03-20T06:00:01.659Z,4.47
2018-03-20T06:00:33.313Z,5.10
2018-03-20T06:01:04.951Z,4.95
2018-03-20T06:01:36.585Z,4.95
2018-03-20T06:02:08.219Z,5.07
2018-03-20T06:02:39.849Z,5.75
2018-03-20T06:03:11.478Z,4.65
2018-03-20T06:03:43.133Z,5.18
2018-03-20T06:04:14.764Z,5.75
2018-03-20T06:04:46.409Z,5.47
2018-03-20T06:05:18.027Z,5.75
2018-03-20T06:05:49.653Z,4.85
2018-03-20T06:06:21.265Z,5.90
2018-03-20T06:06:52.898Z,5.97
2018-03-20T06:07:24.529Z,4.57
2018-03-20T06:07:56.172Z,4.80
2018-03-20T06:08:27.789Z,5.07
2018-03-20T06:08:59.639Z,6.07
2018-03-20T06:09:31.259Z,5.78
2018-03-20T06:10:02.921Z,4.87
2018-03-20T06:10:34.573Z,4.95
2018-03-20T06:11:06.188Z,6.50
2018-03-20T06:11:37.794Z,6.28
2018-03-20T06:12:09.403Z,6.25
2018-03-20T06:12:41.048Z,6.57
2018-03-20T06:13:12.705Z,6.80
2018-03-20T06:13:44.309Z,5.75
2018-03-20T06:14:15.969Z,4.85
2018-03-20T06:14:47.661Z,4.55
2018-03-20T06:15:19.283Z,5.62
2018-03-20T06:15:50.969Z,4.95
2018-03-20T06:16:22.608Z,5.05
2018-03-20T06:16:54.261Z,5.45
2018-03-20T06:17:25.886Z,5.50
2018-03-20T06:17:57.531Z,6.10
2018-03-20T06:18:29.142Z,5.90
2018-03-20T06:19:00.757Z,6.43
2018-03-20T06:19:32.434Z,6.28
2018-03-20T06:20:04.093Z,5.60
2018-03-20T06:20:35.735Z,5.97
2018-03-20T06:21:07.367Z,5.47
2018-03-20T06:21:39.002Z,4.95
2018-03-20T06:22:10.657Z,5.15
2018-03-20T06:22:42.295Z,4.85
2018-03-20T06:23:13.925Z,4.30
2018-03-20T06:23:45.534Z,5.20
2018-03-20T06:24:17.181Z,4.75
2018-03-20T06:24:48.829Z,5.90
2018-03-20T06:25:20.472Z,5.68
2018-03-20T06:25:52.082Z,6.57
2018-03-20T06:26:23.689Z,6.70
2018-03-20T06:26:55.301Z,6.12
2018-03-20T06:27:26.923Z,5.03
2018-03-20T06:27:58.541Z,4.80
2018-03-20T06:28:30.151Z,6.82
2018-03-20T06:29:01.799Z,5.82
2018-03-20T06:29:33.417Z,6.12
2018-03-20T06:30:05.075Z,6.18
2018-03-20T06:30:36.713Z,5.82
2018-03-20T06:31:08.392Z,6.45
2018-03-20T06:31:40.017Z,5.85
2018-03-20T06:32:11.628Z,5.93
2018-03-20T06:32:43.247Z,5.90
2018-03-20T06:33:14.873Z,5.12
2018-03-20T06:33:46.643Z,5.20
2018-03-20T06:34:18.353Z,5.55
2018-03-20T06:34:49.985Z,5.40
2018-03-20T06:35:21.627Z,5.90
2018-03-20T06:35:53.344Z,5.25
2018-03-20T06:36:25.041Z,5.85
2018-03-20T06:36:56.682Z,6.30
2018-03-20T06:37:28.355Z,6.10
2018-03-20T06:38:00.043Z,6.37
2018-03-20T06:38:31.663Z,6.57
2018-03-20T06:39:03.354Z,6.62
2018-03-20T06:39:34.997Z,6.10
2018-03-20T06:40:06.620Z,5.93
2018-03-20T06:40:38.283Z,6.00
2018-03-20T06:41:09.931Z,5.53
2018-03-20T06:41:41.559Z,5.32
2018-03-20T06:42:13.187Z,4.90
2018-03-20T06:42:44.831Z,4.53
2018-03-20T06:43:16.457Z,5.62
2018-03-20T06:43:48.095Z,5.55
2018-03-20T06:44:19.788Z,5.37
2018-03-20T06:44:51.403Z,5.50
2018-03-20T06:45:23.036Z,5.37
2018-03-20T06:45:54.686Z,5.30
2018-03-20T06:46:26.345Z,5.78
2018-03-20T06:46:57.959Z,5.10
2018-03-20T06:47:29.618Z,5.85
2018-03-20T06:48:01.249Z,5.43
2018-03-20T06:48:32.854Z,5.70
2018-03-20T06:49:04.511Z,5.50
2018-03-20T06:49:36.202Z,5.30
2018-03-20T06:50:07.817Z,6.37
2018-03-20T06:50:39.432Z,5.57
2018-03-20T06:51:11.065Z,5.57
2018-03-20T06:51:42.717Z,5.93
2018-03-20T06:52:14.353Z,4.50
2018-03-20T06:52:45.992Z,4.95
2018-03-20T06:53:17.615Z,6.28
2018-03-20T06:53:49.237Z,5.43
2018-03-20T06:54:20.849Z,5.60
2018-03-20T06:54:52.560Z,4.68
2018-03-20T06:55:24.188Z,4.72
2018-03-20T06:55:55.815Z,5.10
2018-03-20T06:56:27.466Z,6.05
2018-03-20T06:56:59.061Z,5.53
2018-03-20T06:57:30.730Z,5.05
2018-03-20T06:58:02.355Z,6.12
2018-03-20T06:58:33.973Z,5.10
2018-03-20T06:59:05.611Z,4.47
2018-03-20T06:59:37.304Z,5.07
2018-03-20T07:00:08.956Z,7.12
2018-03-20T07:00:40.600Z,5.53
2018-03-20T07:01:12.234Z,5.28
2018-03-20T07:01:43.912Z,5.15
2018-03-20T07:02:15.561Z,4.70
2018-03-20T07:02:47.193Z,5.10
2018-03-20T07:03:18.809Z,5.10
2018-03-20T07:03:50.485Z,4.85
2018-03-20T07:04:22.093Z,4.47
2018-03-20T07:04:53.717Z,5.40
2018-03-20T07:05:25.339Z,5.80
2018-03-20T07:05:56.957Z,4.62
2018-03-20T07:06:28.586Z,5.65
2018-03-20T07:07:00.205Z,4.55
2018-03-20T07:07:31.800Z,6.20
2018-03-20T07:08:03.421Z,4.82
2018-03-20T07:08:35.044Z,4.90
2018-03-20T07:09:06.873Z,5.50